createdAt,value
2022-11-16T00:00:05.655Z,109.32
2022-11-16T00:00:27.865Z,105.90
2022-11-16T00:00:49.811Z,113.20
2022-11-16T00:01:14.799Z,110.38
2022-11-16T00:01:37.784Z,106.60
2022-11-16T00:02:01.861Z,106.75
2022-11-16T00:02:23.824Z,103.97
2022-11-16T00:02:45.957Z,104.72
2022-11-16T00:03:07.976Z,107.47
2022-11-16T00:03:31.650Z,110.30
2022-11-16T00:03:56.044Z,108.05
2022-11-16T00:04:17.912Z,108.28
2022-11-16T00:04:39.769Z,102.77
2022-11-16T00:05:02.621Z,108.13
2022-11-16T00:05:28.326Z,107.93
2022-11-16T00:05:55.964Z,111.55
2022-11-16T00:06:18.493Z,107.30
2022-11-16T00:06:41.648Z,107.70
2022-11-16T00:07:04.127Z,106.53
2022-11-16T00:07:26.067Z,110.68
2022-11-16T00:07:49.148Z,113.40
2022-11-16T00:08:10.830Z,109.07
2022-11-16T00:08:35.799Z,110.63
2022-11-16T00:09:18.468Z,104.30
2022-11-16T00:09:40.186Z,113.43
2022-11-16T00:10:01.861Z,112.80
2022-11-16T00:10:24.617Z,107.00
2022-11-16T00:10:46.326Z,105.40
2022-11-16T00:11:10.925Z,107.43
2022-11-16T00:11:32.703Z,103.10
2022-11-16T00:11:56.284Z,104.72
2022-11-16T00:12:19.043Z,107.70
2022-11-16T00:12:40.796Z,108.30
2022-11-16T00:13:02.523Z,109.40
2022-11-16T00:13:24.284Z,109.03
2022-11-16T00:13:47.289Z,109.93
2022-11-16T00:14:09.340Z,106.75
2022-11-16T00:14:34.723Z,102.18
2022-11-16T00:14:57.403Z,111.07
2022-11-16T00:15:19.092Z,109.15
2022-11-16T00:15:40.795Z,106.78
2022-11-16T00:16:03.076Z,106.72
2022-11-16T00:16:24.865Z,105.28
2022-11-16T00:16:47.899Z,107.72
2022-11-16T00:17:09.569Z,107.47
2022-11-16T00:17:31.344Z,107.15
2022-11-16T00:17:53.026Z,110.22
2022-11-16T00:18:14.694Z,114.93
2022-11-16T00:18:37.328Z,111.45
2022-11-16T00:19:01.611Z,109.18
2022-11-16T00:19:23.907Z,109.80
2022-11-16T00:19:48.080Z,106.63
2022-11-16T00:20:10.768Z,112.28
2022-11-16T00:20:32.448Z,110.72
2022-11-16T00:20:54.208Z,107.75
2022-11-16T00:21:15.910Z,110.68
2022-11-16T00:21:38.958Z,112.07
2022-11-16T00:22:00.708Z,110.65
2022-11-16T00:22:22.541Z,111.05
2022-11-16T00:22:45.231Z,107.68
2022-11-16T00:23:08.271Z,105.57
2022-11-16T00:23:29.960Z,107.25
2022-11-16T00:23:51.868Z,108.47
2022-11-16T00:24:14.640Z,107.00
2022-11-16T00:24:37.411Z,108.68
2022-11-16T00:24:59.158Z,109.35
2022-11-16T00:25:20.894Z,112.45
2022-11-16T00:25:44.414Z,114.95
2022-11-16T00:26:09.437Z,106.40
2022-11-16T00:26:31.340Z,108.47
2022-11-16T00:26:54.197Z,111.20
2022-11-16T00:27:16.142Z,110.82
2022-11-16T00:27:38.867Z,108.93
2022-11-16T00:28:00.635Z,109.93
2022-11-16T00:28:22.375Z,111.65
2022-11-16T00:28:44.153Z,110.28
2022-11-16T00:29:06.832Z,110.13
2022-11-16T00:29:28.559Z,107.97
2022-11-16T00:29:50.296Z,110.47
2022-11-16T00:30:12.771Z,115.35
2022-11-16T00:30:35.444Z,110.25
2022-11-16T00:31:00.635Z,109.55
2022-11-16T00:31:23.027Z,108.15
2022-11-16T00:31:45.387Z,111.30
2022-11-16T00:32:08.321Z,110.97
2022-11-16T00:32:31.239Z,110.78
2022-11-16T00:32:53.091Z,112.40
2022-11-16T00:33:15.848Z,113.72
2022-11-16T00:33:37.723Z,108.55
2022-11-16T00:34:00.438Z,112.43
2022-11-16T00:34:22.519Z,113.65
2022-11-16T00:34:44.302Z,112.78
2022-11-16T00:35:07.204Z,111.70
2022-11-16T00:35:29.926Z,108.65
2022-11-16T00:35:51.705Z,113.80
2022-11-16T00:36:13.822Z,117.80
2022-11-16T00:36:35.502Z,113.90
2022-11-16T00:36:58.369Z,110.88
2022-11-16T00:37:20.051Z,108.88
2022-11-16T00:37:41.916Z,112.30
2022-11-16T00:38:03.968Z,113.43
2022-11-16T00:38:28.113Z,113.57
2022-11-16T00:38:52.216Z,116.60
2022-11-16T00:39:16.164Z,114.20
2022-11-16T00:39:37.908Z,111.47
2022-11-16T00:40:00.550Z,116.57
2022-11-16T00:40:22.757Z,117.32
2022-11-16T00:40:44.394Z,113.40
2022-11-16T00:41:06.563Z,115.97
2022-11-16T00:41:29.243Z,116.93
2022-11-16T00:41:51.349Z,118.70
2022-11-16T00:42:13.158Z,112.70
2022-11-16T00:42:34.858Z,111.40
2022-11-16T00:42:56.846Z,112.68
2022-11-16T00:43:19.527Z,111.50
2022-11-16T00:43:41.617Z,105.85
2022-11-16T00:44:03.807Z,114.37
2022-11-16T00:44:25.536Z,109.88
2022-11-16T00:44:48.449Z,111.05
2022-11-16T00:45:10.838Z,110.22
2022-11-16T00:45:32.634Z,110.82
2022-11-16T00:45:54.345Z,111.47
2022-11-16T00:46:16.257Z,115.18
2022-11-16T00:46:39.330Z,120.18
2022-11-16T00:47:01.128Z,116.65
2022-11-16T00:47:22.944Z,119.22
2022-11-16T00:47:44.835Z,117.10
2022-11-16T00:48:07.536Z,113.30
2022-11-16T00:48:29.331Z,109.38
2022-11-16T00:48:51.029Z,113.20
2022-11-16T00:49:12.728Z,119.00
2022-11-16T00:49:35.444Z,116.85
2022-11-16T00:49:57.721Z,117.22
2022-11-16T00:50:19.442Z,118.13
2022-11-16T00:50:41.184Z,114.85
2022-11-16T00:51:04.083Z,111.72
2022-11-16T00:51:26.051Z,113.85
2022-11-16T00:51:47.968Z,113.72
2022-11-16T00:52:09.754Z,112.32
2022-11-16T00:52:32.454Z,112.68
2022-11-16T00:52:54.783Z,113.05
2022-11-16T00:53:18.489Z,112.57
2022-11-16T00:53:41.563Z,112.25
2022-11-16T00:54:04.609Z,115.15
2022-11-16T00:54:29.971Z,115.15
2022-11-16T00:54:52.110Z,112.28
2022-11-16T00:55:14.226Z,112.13
2022-11-16T00:55:37.521Z,112.28
2022-11-16T00:55:59.271Z,116.63
2022-11-16T00:56:21.985Z,112.80
2022-11-16T00:56:43.689Z,115.82
2022-11-16T00:57:08.638Z,115.68
2022-11-16T00:57:31.063Z,115.43
2022-11-16T00:57:52.958Z,115.40
2022-11-16T00:58:17.266Z,113.15
2022-11-16T00:58:41.703Z,116.20
2022-11-16T00:59:05.479Z,116.72
2022-11-16T00:59:27.617Z,116.57
2022-11-16T00:59:52.931Z,121.47
2022-11-16T01:00:16.185Z,118.07
2022-11-16T01:00:38.192Z,119.28
2022-11-16T01:01:04.667Z,117.65
2022-11-16T01:01:27.500Z,121.15
2022-11-16T01:01:49.448Z,116.80
2022-11-16T01:02:11.689Z,113.90
2022-11-16T01:02:36.292Z,115.43
2022-11-16T01:02:58.046Z,116.90
2022-11-16T01:03:20.943Z,116.20
2022-11-16T01:03:42.889Z,113.73
2022-11-16T01:04:04.834Z,113.40
2022-11-16T01:04:26.642Z,119.43
2022-11-16T01:04:48.516Z,115.07
2022-11-16T01:05:12.437Z,113.07
2022-11-16T01:05:34.538Z,114.07
2022-11-16T01:06:00.544Z,113.85
2022-11-16T01:06:24.254Z,116.38
2022-11-16T01:06:45.938Z,115.95
2022-11-16T01:07:07.714Z,117.32
2022-11-16T01:07:29.523Z,115.60
2022-11-16T01:07:52.810Z,112.93
2022-11-16T01:08:14.667Z,116.93
2022-11-16T01:08:37.546Z,117.35
2022-11-16T01:09:00.707Z,118.10
2022-11-16T01:09:23.623Z,119.05
2022-11-16T01:09:45.312Z,119.30
2022-11-16T01:10:10.561Z,115.47
2022-11-16T01:10:33.606Z,119.80
2022-11-16T01:11:17.912Z,119.88
2022-11-16T01:11:58.114Z,116.13
2022-11-16T01:12:20.000Z,115.60
2022-11-16T01:12:41.753Z,117.95
2022-11-16T01:13:03.531Z,116.40
2022-11-16T01:13:25.210Z,117.75
2022-11-16T01:13:47.280Z,116.25
2022-11-16T01:14:10.694Z,114.88
2022-11-16T01:14:32.475Z,113.88
2022-11-16T01:14:54.198Z,115.85
2022-11-16T01:15:16.707Z,113.22
2022-11-16T01:15:39.437Z,117.35
2022-11-16T01:16:01.182Z,117.78
2022-11-16T01:16:23.446Z,117.47
2022-11-16T01:16:45.140Z,114.28
2022-11-16T01:17:08.272Z,112.70
2022-11-16T01:17:29.942Z,120.13
2022-11-16T01:17:52.678Z,115.97
2022-11-16T01:18:14.404Z,115.88
2022-11-16T01:18:37.320Z,114.10
2022-11-16T01:19:00.294Z,118.20
2022-11-16T01:19:21.986Z,117.10
2022-11-16T01:19:43.706Z,117.35
2022-11-16T01:20:07.887Z,120.43
2022-11-16T01:20:31.620Z,118.60
2022-11-16T01:20:54.191Z,122.10
2022-11-16T01:21:16.420Z,117.28
2022-11-16T01:21:38.161Z,118.53
2022-11-16T01:22:01.591Z,119.18
2022-11-16T01:22:23.402Z,119.75
2022-11-16T01:22:45.383Z,119.53
2022-11-16T01:23:07.084Z,118.10
2022-11-16T01:23:28.748Z,120.95
2022-11-16T01:23:51.510Z,122.00
2022-11-16T01:24:14.860Z,118.50
2022-11-16T01:24:36.808Z,114.18
2022-11-16T01:24:58.490Z,116.55
2022-11-16T01:25:21.800Z,119.95
2022-11-16T01:25:43.473Z,119.82
2022-11-16T01:26:05.467Z,122.43
2022-11-16T01:26:30.034Z,116.93
2022-11-16T01:26:56.695Z,117.25
2022-11-16T01:27:19.093Z,118.57
2022-11-16T01:27:41.455Z,122.07
2022-11-16T01:28:08.561Z,120.55
2022-11-16T01:28:40.210Z,117.40
2022-11-16T01:29:02.865Z,121.32
2022-11-16T01:29:30.039Z,118.45
2022-11-16T01:29:54.738Z,118.65
2022-11-16T01:30:17.506Z,120.60
2022-11-16T01:30:48.647Z,122.82
2022-11-16T01:31:11.089Z,124.35
2022-11-16T01:31:33.165Z,128.80
2022-11-16T01:31:58.602Z,124.15
2022-11-16T01:32:20.516Z,118.90
2022-11-16T01:32:42.315Z,122.07
2022-11-16T01:33:04.106Z,122.43
2022-11-16T01:33:25.819Z,118.78
2022-11-16T01:33:48.580Z,118.88
2022-11-16T01:34:19.554Z,122.90
2022-11-16T01:34:41.425Z,123.38
2022-11-16T01:35:18.326Z,117.20
2022-11-16T01:35:43.181Z,123.68
2022-11-16T01:36:10.555Z,121.50
2022-11-16T01:36:33.083Z,127.45
2022-11-16T01:36:56.190Z,125.75
2022-11-16T01:37:21.139Z,124.15
2022-11-16T01:37:43.917Z,123.53
2022-11-16T01:38:05.871Z,122.40
2022-11-16T01:38:30.113Z,124.37
2022-11-16T01:38:54.275Z,121.47
2022-11-16T01:39:20.972Z,124.10
2022-11-16T01:39:49.286Z,126.38
2022-11-16T01:40:12.635Z,123.00
2022-11-16T01:40:36.526Z,124.60
2022-11-16T01:40:59.919Z,120.07
2022-11-16T01:41:25.874Z,119.93
2022-11-16T01:41:53.203Z,122.10
2022-11-16T01:42:20.583Z,121.47
2022-11-16T01:42:46.807Z,123.10
2022-11-16T01:43:12.681Z,118.00
2022-11-16T01:43:50.371Z,118.10
2022-11-16T01:44:49.232Z,119.10
2022-11-16T01:45:20.947Z,125.30
2022-11-16T01:45:45.146Z,122.60
2022-11-16T01:46:09.399Z,124.88
2022-11-16T01:46:31.847Z,119.93
2022-11-16T01:46:54.027Z,120.68
2022-11-16T01:47:18.049Z,121.30
2022-11-16T01:47:40.517Z,120.65
2022-11-16T01:48:02.316Z,119.63
2022-11-16T01:48:30.128Z,125.57
2022-11-16T01:48:55.107Z,120.50
2022-11-16T01:49:19.226Z,125.13
2022-11-16T01:49:43.554Z,119.95
2022-11-16T01:50:13.540Z,119.15
2022-11-16T01:50:38.651Z,122.13
2022-11-16T01:51:00.378Z,120.53
2022-11-16T01:51:24.821Z,118.63
2022-11-16T01:51:50.996Z,126.50
2022-11-16T01:52:19.646Z,124.15
2022-11-16T01:52:46.159Z,125.45
2022-11-16T01:53:11.084Z,125.18
2022-11-16T01:53:41.097Z,125.05
2022-11-16T01:54:06.920Z,121.13
2022-11-16T01:54:32.902Z,122.97
2022-11-16T01:54:55.571Z,121.47
2022-11-16T01:55:19.949Z,118.72
2022-11-16T01:55:56.078Z,121.93
2022-11-16T01:56:38.587Z,120.05
2022-11-16T01:57:17.063Z,127.32
2022-11-16T01:57:47.397Z,121.45
2022-11-16T01:58:10.686Z,122.88
2022-11-16T01:58:35.886Z,115.13
2022-11-16T01:59:08.376Z,116.82
2022-11-16T01:59:30.521Z,119.30
2022-11-16T01:59:56.625Z,118.90
2022-11-16T02:00:21.109Z,119.47
2022-11-16T02:00:52.570Z,119.50
2022-11-16T02:01:24.558Z,118.35
2022-11-16T02:01:51.250Z,118.90
2022-11-16T02:02:14.509Z,123.47
2022-11-16T02:02:36.229Z,123.30
2022-11-16T02:02:58.177Z,118.28
2022-11-16T02:03:35.529Z,121.32
2022-11-16T02:03:57.388Z,119.45
2022-11-16T02:04:19.124Z,118.53
2022-11-16T02:04:47.652Z,126.95
2022-11-16T02:05:18.422Z,121.10
2022-11-16T02:06:00.162Z,118.40
2022-11-16T02:06:32.451Z,120.40
2022-11-16T02:07:07.879Z,126.85
2022-11-16T02:08:01.027Z,118.97
2022-11-16T02:08:53.012Z,123.73
2022-11-16T02:09:53.818Z,121.13
2022-11-16T02:10:28.639Z,118.35
2022-11-16T02:11:07.267Z,121.25
2022-11-16T02:11:44.215Z,120.47
2022-11-16T02:12:15.547Z,118.13
2022-11-16T02:12:55.207Z,120.68
2022-11-16T02:13:35.113Z,117.60
2022-11-16T02:14:07.112Z,118.65
2022-11-16T02:14:37.896Z,122.35
2022-11-16T02:15:09.306Z,117.55
2022-11-16T02:15:41.333Z,114.32
2022-11-16T02:16:19.006Z,121.53
2022-11-16T02:16:50.441Z,122.18
2022-11-16T02:17:25.114Z,125.22
2022-11-16T02:17:51.218Z,121.40
2022-11-16T02:18:25.942Z,120.18
2022-11-16T02:18:54.581Z,117.88
2022-11-16T02:19:39.966Z,121.22
2022-11-16T02:20:36.561Z,115.60
2022-11-16T02:21:10.261Z,121.18
2022-11-16T02:21:36.212Z,113.38
2022-11-16T02:22:06.515Z,118.30
2022-11-16T02:22:39.742Z,116.25
2022-11-16T02:23:18.673Z,115.30
2022-11-16T02:24:06.786Z,119.85
2022-11-16T02:24:48.278Z,118.80
2022-11-16T02:25:14.130Z,117.63
2022-11-16T02:25:44.030Z,117.07
2022-11-16T02:26:17.870Z,119.65
2022-11-16T02:27:16.810Z,117.72
2022-11-16T02:28:14.268Z,121.32
2022-11-16T02:28:44.189Z,116.47
2022-11-16T02:29:25.074Z,120.53
2022-11-16T02:29:50.593Z,118.90
2022-11-16T02:30:13.005Z,115.75
2022-11-16T02:30:39.339Z,120.93
2022-11-16T02:31:05.082Z,119.85
2022-11-16T02:31:29.818Z,117.47
2022-11-16T02:31:59.191Z,115.45
2022-11-16T02:32:26.320Z,114.80
2022-11-16T02:32:51.477Z,116.72
2022-11-16T02:33:16.340Z,115.57
2022-11-16T02:33:40.268Z,119.63
2022-11-16T02:34:03.399Z,115.45
2022-11-16T02:34:29.488Z,115.10
2022-11-16T02:34:54.200Z,119.05
2022-11-16T02:35:18.948Z,115.57
2022-11-16T02:35:42.708Z,117.05
2022-11-16T02:36:08.696Z,118.50
2022-11-16T02:36:32.309Z,115.32
2022-11-16T02:36:54.934Z,121.05
2022-11-16T02:37:19.337Z,117.93
2022-11-16T02:37:46.742Z,118.53
2022-11-16T02:38:11.529Z,117.95
2022-11-16T02:38:36.336Z,117.55
2022-11-16T02:39:01.914Z,119.15
2022-11-16T02:39:27.080Z,117.72
2022-11-16T02:39:52.325Z,117.05
2022-11-16T02:40:16.470Z,113.68
2022-11-16T02:40:40.297Z,118.90
2022-11-16T02:41:07.633Z,120.88
2022-11-16T02:41:32.738Z,112.72
2022-11-16T02:41:55.595Z,118.00
2022-11-16T02:42:21.778Z,110.38
2022-11-16T02:42:48.787Z,113.32
2022-11-16T02:43:12.787Z,116.13
2022-11-16T02:43:36.243Z,115.18
2022-11-16T02:44:03.433Z,114.82
2022-11-16T02:44:30.309Z,111.78
2022-11-16T02:44:53.074Z,115.50
2022-11-16T02:45:18.656Z,115.85
2022-11-16T02:45:44.019Z,119.13
2022-11-16T02:46:08.412Z,115.63
2022-11-16T02:46:32.378Z,111.93
2022-11-16T02:46:57.854Z,111.80
2022-11-16T02:47:21.990Z,117.97
2022-11-16T02:47:47.234Z,120.38
2022-11-16T02:48:11.819Z,119.05
2022-11-16T02:48:36.127Z,117.28
2022-11-16T02:49:01.072Z,115.30
2022-11-16T02:49:23.656Z,115.15
2022-11-16T02:49:49.092Z,119.85
2022-11-16T02:50:14.125Z,116.63
2022-11-16T02:50:36.993Z,119.80
2022-11-16T02:50:58.672Z,116.13
2022-11-16T02:51:22.438Z,118.63
2022-11-16T02:51:45.575Z,118.63
2022-11-16T02:52:07.965Z,113.30
2022-11-16T02:52:29.640Z,120.50
2022-11-16T02:52:52.436Z,119.50
2022-11-16T02:53:14.477Z,122.55
2022-11-16T02:53:40.664Z,117.53
2022-11-16T02:54:09.087Z,114.47
2022-11-16T02:54:34.436Z,115.60
2022-11-16T02:54:56.165Z,120.43
2022-11-16T02:55:18.186Z,119.13
2022-11-16T02:55:40.060Z,115.10
2022-11-16T02:56:02.766Z,119.78
2022-11-16T02:56:24.746Z,118.80
2022-11-16T02:56:52.518Z,118.78
2022-11-16T02:57:34.420Z,114.80
2022-11-16T02:57:58.856Z,117.63
2022-11-16T02:58:23.116Z,117.00
2022-11-16T02:58:45.361Z,116.93
2022-11-16T02:59:09.552Z,121.10
2022-11-16T02:59:37.506Z,119.15
2022-11-16T03:00:00.465Z,124.43
2022-11-16T03:00:28.490Z,117.93
2022-11-16T03:00:56.461Z,123.22
2022-11-16T03:01:23.951Z,117.72
2022-11-16T03:01:47.958Z,118.20
2022-11-16T03:02:22.683Z,117.88
2022-11-16T03:02:52.154Z,115.03
2022-11-16T03:03:20.703Z,120.93
2022-11-16T03:03:47.368Z,116.30
2022-11-16T03:04:15.460Z,118.82
2022-11-16T03:04:41.441Z,114.97
2022-11-16T03:05:07.260Z,120.63
2022-11-16T03:05:39.473Z,114.55
2022-11-16T03:06:06.748Z,119.70
2022-11-16T03:06:31.122Z,123.82
2022-11-16T03:06:55.239Z,119.53
2022-11-16T03:07:21.475Z,119.10
2022-11-16T03:07:46.038Z,120.70
2022-11-16T03:08:14.155Z,124.18
2022-11-16T03:08:39.571Z,120.57
2022-11-16T03:09:05.993Z,124.05
2022-11-16T03:09:29.580Z,119.88
2022-11-16T03:09:51.440Z,118.50
2022-11-16T03:10:35.643Z,125.40
2022-11-16T03:11:20.236Z,121.28
2022-11-16T03:12:00.480Z,113.70
2022-11-16T03:12:28.990Z,118.80
2022-11-16T03:12:50.794Z,117.30
2022-11-16T03:13:14.342Z,120.03
2022-11-16T03:13:36.770Z,119.97
2022-11-16T03:14:02.955Z,119.47
2022-11-16T03:14:27.948Z,117.03
2022-11-16T03:14:53.944Z,115.45
2022-11-16T03:15:15.714Z,117.75
2022-11-16T03:15:39.671Z,123.47
2022-11-16T03:16:03.621Z,123.20
2022-11-16T03:16:27.636Z,122.22
2022-11-16T03:16:55.004Z,116.05
2022-11-16T03:17:19.810Z,120.30
2022-11-16T03:17:43.898Z,119.65
2022-11-16T03:18:06.911Z,120.97
2022-11-16T03:18:29.940Z,121.90
2022-11-16T03:18:56.602Z,120.88
2022-11-16T03:19:23.228Z,120.35
2022-11-16T03:19:50.086Z,119.13
2022-11-16T03:20:14.348Z,118.57
2022-11-16T03:20:38.130Z,124.68
2022-11-16T03:21:06.915Z,125.85
2022-11-16T03:21:33.294Z,122.47
2022-11-16T03:21:59.808Z,123.25
2022-11-16T03:22:26.155Z,118.03
2022-11-16T03:22:49.910Z,118.43
2022-11-16T03:23:13.714Z,120.90
2022-11-16T03:23:37.921Z,114.57
2022-11-16T03:24:00.201Z,121.55
2022-11-16T03:24:21.965Z,117.10
2022-11-16T03:24:44.958Z,121.30
2022-11-16T03:25:08.002Z,119.57
2022-11-16T03:25:33.098Z,118.72
2022-11-16T03:25:56.142Z,114.53
2022-11-16T03:26:23.541Z,119.85
2022-11-16T03:26:49.322Z,119.72
2022-11-16T03:27:19.262Z,119.97
2022-11-16T03:27:47.093Z,120.03
2022-11-16T03:28:12.334Z,115.22
2022-11-16T03:28:36.101Z,116.72
2022-11-16T03:29:01.956Z,119.10
2022-11-16T03:29:30.050Z,117.57
2022-11-16T03:30:01.820Z,122.85
2022-11-16T03:30:24.893Z,118.95
2022-11-16T03:30:51.366Z,117.97
2022-11-16T03:31:15.412Z,120.28
2022-11-16T03:31:42.421Z,121.18
2022-11-16T03:32:13.518Z,117.40
2022-11-16T03:32:42.776Z,118.45
2022-11-16T03:33:10.154Z,118.70
2022-11-16T03:33:36.238Z,117.97
2022-11-16T03:34:03.949Z,119.45
2022-11-16T03:34:28.539Z,125.80
2022-11-16T03:34:56.350Z,123.25
2022-11-16T03:35:22.672Z,119.53
2022-11-16T03:35:50.158Z,122.63
2022-11-16T03:36:17.211Z,120.00
2022-11-16T03:36:40.579Z,121.32
2022-11-16T03:37:05.101Z,123.90
2022-11-16T03:37:31.379Z,125.82
2022-11-16T03:37:56.894Z,122.32
2022-11-16T03:38:21.989Z,122.07
2022-11-16T03:38:45.257Z,122.95
2022-11-16T03:39:11.133Z,119.90
2022-11-16T03:39:36.921Z,120.53
2022-11-16T03:40:01.659Z,118.40
2022-11-16T03:40:29.390Z,145.70
2022-11-16T03:40:52.104Z,139.40
2022-11-16T03:41:14.926Z,135.88
2022-11-16T03:41:39.152Z,142.27
2022-11-16T03:42:03.850Z,143.10
2022-11-16T03:42:26.527Z,147.48
2022-11-16T03:42:49.420Z,155.03
2022-11-16T03:43:11.296Z,149.10
2022-11-16T03:43:35.228Z,157.93
2022-11-16T03:43:59.163Z,158.25
2022-11-16T03:44:21.747Z,148.02
2022-11-16T03:44:44.717Z,148.95
2022-11-16T03:45:08.764Z,144.45
2022-11-16T03:45:31.601Z,143.68
2022-11-16T03:45:54.716Z,142.00
2022-11-16T03:46:17.401Z,148.18
2022-11-16T03:46:41.157Z,164.45
2022-11-16T03:47:03.651Z,158.00
2022-11-16T03:47:26.326Z,162.75
2022-11-16T03:47:48.270Z,173.18
2022-11-16T03:48:11.564Z,177.18
2022-11-16T03:48:35.248Z,175.07
2022-11-16T03:49:00.766Z,192.00
2022-11-16T03:49:29.890Z,203.85
2022-11-16T03:49:51.557Z,203.48
2022-11-16T03:50:16.207Z,205.27
2022-11-16T03:50:38.457Z,199.77
2022-11-16T03:51:00.104Z,200.27
2022-11-16T03:51:22.778Z,205.00
2022-11-16T03:51:45.437Z,201.30
2022-11-16T03:52:07.602Z,219.52
2022-11-16T03:52:29.662Z,235.52
2022-11-16T03:52:51.351Z,227.63
2022-11-16T03:53:14.273Z,233.85
2022-11-16T03:53:36.120Z,228.45
2022-11-16T03:53:57.979Z,217.63
2022-11-16T03:54:19.718Z,237.27
2022-11-16T03:54:41.422Z,217.02
2022-11-16T03:55:04.733Z,209.52
2022-11-16T03:55:26.824Z,216.77
2022-11-16T03:55:50.034Z,238.55
2022-11-16T03:56:12.081Z,269.83
2022-11-16T03:56:35.270Z,287.15
2022-11-16T03:56:57.560Z,288.65
2022-11-16T03:57:19.304Z,300.05
2022-11-16T03:57:47.208Z,290.80
2022-11-16T03:58:10.277Z,295.30
2022-11-16T03:58:33.710Z,291.70
2022-11-16T03:58:56.040Z,279.98
2022-11-16T03:59:17.886Z,285.77
2022-11-16T03:59:41.225Z,290.85
2022-11-16T04:00:04.043Z,298.05
2022-11-16T04:00:36.395Z,287.33
2022-11-16T04:01:03.754Z,276.13
2022-11-16T04:01:26.909Z,268.83
2022-11-16T04:01:48.649Z,285.38
2022-11-16T04:02:10.834Z,294.63
2022-11-16T04:02:32.910Z,279.98
2022-11-16T04:02:54.550Z,270.88
2022-11-16T04:03:18.493Z,284.15
2022-11-16T04:03:41.719Z,291.23
2022-11-16T04:04:05.118Z,301.67
2022-11-16T04:04:45.957Z,300.20
2022-11-16T04:05:27.620Z,282.10
2022-11-16T04:06:08.077Z,318.15
2022-11-16T04:06:49.607Z,334.67
2022-11-16T04:07:30.248Z,337.48
2022-11-16T04:08:10.544Z,352.25
2022-11-16T04:08:51.124Z,347.90
2022-11-16T04:09:33.851Z,347.73
2022-11-16T04:10:13.971Z,352.05
2022-11-16T04:10:55.105Z,335.25
2022-11-16T04:11:38.114Z,343.05
2022-11-16T04:12:18.650Z,348.60
2022-11-16T04:13:00.838Z,353.83
2022-11-16T04:13:45.521Z,358.33
2022-11-16T04:14:29.014Z,353.33
2022-11-16T04:15:08.993Z,322.25
2022-11-16T04:15:49.565Z,326.92
2022-11-16T04:16:30.222Z,315.98
2022-11-16T04:17:11.498Z,339.92
2022-11-16T04:17:51.764Z,342.73
2022-11-16T04:18:32.648Z,333.23
2022-11-16T04:19:13.528Z,304.73
2022-11-16T04:19:57.920Z,306.83
2022-11-16T04:20:40.128Z,320.77
2022-11-16T04:21:20.663Z,313.40
2022-11-16T04:22:03.735Z,321.58
2022-11-16T04:22:50.554Z,320.80
2022-11-16T04:23:33.490Z,314.08
2022-11-16T04:24:16.051Z,315.10
2022-11-16T04:24:40.228Z,313.17
2022-11-16T04:25:05.714Z,304.98
2022-11-16T04:25:31.284Z,315.42
2022-11-16T04:25:54.435Z,314.60
2022-11-16T04:26:18.067Z,310.85
2022-11-16T04:26:59.461Z,312.02
2022-11-16T04:27:44.930Z,321.63
2022-11-16T04:28:13.228Z,324.52
2022-11-16T04:28:38.645Z,325.85
2022-11-16T04:29:00.851Z,329.42
2022-11-16T04:29:22.893Z,325.05
2022-11-16T04:29:44.905Z,320.27
2022-11-16T04:30:08.834Z,315.80
2022-11-16T04:30:53.276Z,314.70
2022-11-16T04:31:34.802Z,343.88
2022-11-16T04:32:19.541Z,314.02
2022-11-16T04:33:00.147Z,318.30
2022-11-16T04:33:49.055Z,325.73
2022-11-16T04:34:30.011Z,336.00
2022-11-16T04:35:12.681Z,354.60
2022-11-16T04:35:53.281Z,346.65
2022-11-16T04:36:33.746Z,358.77
2022-11-16T04:37:13.950Z,371.48
2022-11-16T04:37:49.440Z,372.80
2022-11-16T04:38:15.814Z,364.00
2022-11-16T04:38:37.510Z,369.02
2022-11-16T04:38:59.362Z,372.65
2022-11-16T04:39:22.384Z,372.90
2022-11-16T04:39:44.206Z,369.30
2022-11-16T04:40:07.233Z,379.90
2022-11-16T04:40:29.412Z,377.20
2022-11-16T04:40:52.881Z,361.40
2022-11-16T04:41:29.494Z,361.63
2022-11-16T04:42:10.417Z,351.05
2022-11-16T04:42:32.143Z,313.97
2022-11-16T04:42:54.729Z,299.90
2022-11-16T04:43:17.747Z,304.95
2022-11-16T04:43:39.722Z,301.98
2022-11-16T04:44:01.666Z,296.98
2022-11-16T04:44:28.819Z,300.13
2022-11-16T04:45:10.466Z,309.85
2022-11-16T04:45:58.591Z,317.35
2022-11-16T04:46:47.369Z,300.25
2022-11-16T04:47:09.247Z,306.40
2022-11-16T04:47:33.283Z,298.38
2022-11-16T04:47:56.068Z,297.75
2022-11-16T04:48:22.761Z,305.33
2022-11-16T04:48:47.886Z,297.10
2022-11-16T04:49:10.606Z,299.17
2022-11-16T04:49:33.909Z,312.52
2022-11-16T04:49:55.685Z,310.35
2022-11-16T04:50:18.591Z,308.17
2022-11-16T04:50:41.976Z,317.33
2022-11-16T04:51:03.893Z,317.02
2022-11-16T04:51:26.072Z,314.75
2022-11-16T04:51:48.135Z,312.60
2022-11-16T04:52:10.075Z,309.05
2022-11-16T04:52:33.477Z,300.05
2022-11-16T04:52:55.314Z,301.27
2022-11-16T04:53:17.073Z,317.02
2022-11-16T04:53:42.497Z,324.80
2022-11-16T04:54:15.932Z,326.98
2022-11-16T04:54:37.633Z,303.33
2022-11-16T04:54:59.965Z,295.90
2022-11-16T04:55:23.238Z,304.52
2022-11-16T04:55:46.990Z,303.23
2022-11-16T04:56:09.230Z,313.45
2022-11-16T04:56:31.085Z,304.13
2022-11-16T04:56:53.140Z,309.50
2022-11-16T04:57:15.481Z,313.63
2022-11-16T04:57:38.614Z,312.25
2022-11-16T04:58:00.621Z,312.00
2022-11-16T04:58:22.300Z,324.20
2022-11-16T04:58:45.058Z,328.33
2022-11-16T04:59:07.776Z,331.13
2022-11-16T04:59:29.501Z,306.88
2022-11-16T04:59:51.419Z,315.75
2022-11-16T05:00:13.963Z,320.45
2022-11-16T05:00:36.921Z,319.20
2022-11-16T05:01:00.190Z,327.90
2022-11-16T05:01:42.925Z,322.13
2022-11-16T05:02:09.406Z,328.52
2022-11-16T05:02:38.745Z,329.77
2022-11-16T05:03:02.097Z,326.98
2022-11-16T05:03:24.643Z,319.20
2022-11-16T05:03:46.341Z,321.70
2022-11-16T05:04:08.218Z,316.90
2022-11-16T05:04:31.231Z,323.52
2022-11-16T05:04:53.407Z,322.75
2022-11-16T05:05:16.537Z,325.45
2022-11-16T05:05:40.820Z,319.70
2022-11-16T05:06:02.914Z,320.67
2022-11-16T05:06:24.725Z,328.90
2022-11-16T05:06:47.225Z,327.67
2022-11-16T05:07:11.102Z,318.80
2022-11-16T05:07:35.915Z,323.45
2022-11-16T05:08:05.004Z,312.17
2022-11-16T05:08:27.887Z,319.33
2022-11-16T05:08:50.324Z,320.10
2022-11-16T05:09:12.987Z,319.02
2022-11-16T05:09:34.830Z,317.08
2022-11-16T05:09:56.547Z,320.05
2022-11-16T05:10:19.356Z,318.80
2022-11-16T05:10:41.051Z,320.10
2022-11-16T05:11:04.673Z,312.17
2022-11-16T05:11:27.452Z,310.05
2022-11-16T05:11:50.698Z,317.00
2022-11-16T05:12:14.840Z,315.07
2022-11-16T05:12:38.034Z,319.75
2022-11-16T05:13:02.642Z,316.27
2022-11-16T05:13:24.382Z,313.48
2022-11-16T05:13:47.675Z,318.73
2022-11-16T05:14:10.125Z,316.15
2022-11-16T05:14:32.345Z,323.05
2022-11-16T05:14:55.849Z,306.30
2022-11-16T05:15:19.748Z,314.60
2022-11-16T05:15:45.094Z,311.75
2022-11-16T05:16:07.896Z,314.55
2022-11-16T05:16:30.664Z,310.60
2022-11-16T05:16:52.337Z,313.10
2022-11-16T05:17:16.754Z,320.92
2022-11-16T05:17:38.497Z,316.38
2022-11-16T05:18:06.492Z,293.50
2022-11-16T05:18:28.254Z,301.40
2022-11-16T05:19:10.258Z,298.30
2022-11-16T05:19:51.465Z,303.20
2022-11-16T05:20:31.896Z,306.63
2022-11-16T05:21:01.153Z,300.02
2022-11-16T05:21:27.127Z,302.85
2022-11-16T05:21:48.879Z,310.20
2022-11-16T05:22:10.556Z,299.85
2022-11-16T05:22:33.494Z,302.85
2022-11-16T05:22:57.550Z,303.40
2022-11-16T05:23:41.277Z,307.67
2022-11-16T05:24:25.298Z,312.63
2022-11-16T05:24:47.464Z,299.23
2022-11-16T05:25:11.845Z,307.92
2022-11-16T05:25:36.632Z,306.58
2022-11-16T05:26:01.386Z,309.55